This is the latest recevied weather packets stored in our database for station/object EA6MW-10. If no packets are shown the sender has not sent any weather packets the latest 10 day(s).
| Time | Temp. | Humidity | Pressure | Rain* | Wind** | Luminosity | Snow |
|---|---|---|---|---|---|---|---|
| 1777888432 | 25.56° C | 58% | 1014 hPa | - | - | - | - |
| 1777828100 | 21.11° C | 68% | 1013.5 hPa | - | - | - | - |
| 1777827200 | 21.67° C | 66% | 1013.6 hPa | - | - | - | - |
| 1777826300 | 22.78° C | 64% | 1013.8 hPa | - | - | - | - |
| 1777825400 | 23.33° C | 61% | 1013.7 hPa | - | - | - | - |
| 1777824499 | 22.22° C | 63% | 1013.9 hPa | - | - | - | - |
| 1777823599 | 23.89° C | 61% | 1014.1 hPa | - | - | - | - |
| 1777822699 | 21.67° C | 65% | 1014.1 hPa | - | - | - | - |
| 1777821799 | 23.33° C | 60% | 1014.2 hPa | - | - | - | - |
| 1777820899 | 25.56° C | 60% | 1014.5 hPa | - | - | - | - |
| 1777819999 | 23.89° C | 58% | 1014.7 hPa | - | - | - | - |
| 1777819098 | 26.67° C | 52% | 1014.8 hPa | - | - | - | - |
| 1777818198 | 25° C | 55% | 1015.1 hPa | - | - | - | - |
| 1777817297 | 23.33° C | 57% | 1015.2 hPa | - | - | - | - |
| 1777816412 | 23.33° C | 56% | 1015.5 hPa | - | - | - | - |
| 1777816397 | 23.33° C | 56% | 1015.5 hPa | - | - | - | - |
| 1777815497 | 21.67° C | 61% | 1016 hPa | - | - | - | - |
| 1777814597 | 20.56° C | 67% | 1016 hPa | - | - | - | - |
| 1777813696 | 21.67° C | 65% | 1015.7 hPa | - | - | - | - |
| 1777812796 | 21.67° C | 63% | 1015.9 hPa | - | - | - | - |
| 1777810996 | 22.78° C | 62% | 1016.2 hPa | - | - | - | - |
| 1777810096 | 23.89° C | 64% | 1016.3 hPa | - | - | - | - |
| 1777809195 | 22.78° C | 67% | 1016.4 hPa | - | - | - | - |
| 1777808295 | 21.67° C | 74% | 1016.8 hPa | - | - | - | - |
| 1777807395 | 21.67° C | 75% | 1016.8 hPa | - | - | - | - |
* Rain since midnight (hover to see other rain measurements)
** Current wind speed in m/s (hover to see current wind gust speed)